Nabq, Egypt
Current Conditions -  °F | °C
As of 8:00 PM on Thursday 23 Oct 2014 (Local Time) from HESH Reporting Station
Clear Clear  
Wind Chill: 26°   Ceiling: Unl
Heat Index: 26°   Visibility: 6mi
Dew Point: 11°   Wind: 3mph
Humidity: 39%   Direction: 330°NNW
Pressure: 29.91"   Gusts: NA
Location:  28.07°N, 34.42°E
Report Text: HESH 231800Z 33003KT CAVOK 26/11 Q1013 NOSIG
Loading
Personal Weather Stations






























Interactive Weather Map
Tropical Storm Tracking
New forecast layout! Learn more

10-Day Weather Forecast

Advertisements
Track Severe Weather on mobile